sensor_id;sensor_type;location;lat;lon;timestamp;P1;durP1;ratioP1;P2;durP2;ratioP2
26052;SDS011;13826;51.186;4.450;2022-08-02T00:02:18;7.55;;;2.22;;
26052;SDS011;13826;51.186;4.450;2022-08-02T00:04:44;6.93;;;2.20;;
26052;SDS011;13826;51.186;4.450;2022-08-02T00:07:10;8.45;;;2.67;;
26052;SDS011;13826;51.186;4.450;2022-08-02T00:09:36;6.53;;;2.10;;
26052;SDS011;13826;51.186;4.450;2022-08-02T00:12:02;5.25;;;2.30;;
26052;SDS011;13826;51.186;4.450;2022-08-02T00:14:28;4.70;;;1.95;;
26052;SDS011;13826;51.186;4.450;2022-08-02T00:16:54;7.18;;;2.33;;
26052;SDS011;13826;51.186;4.450;2022-08-02T00:19:20;8.77;;;2.00;;
26052;SDS011;13826;51.186;4.450;2022-08-02T00:21:45;6.78;;;2.38;;
26052;SDS011;13826;51.186;4.450;2022-08-02T00:24:11;7.57;;;2.33;;
26052;SDS011;13826;51.186;4.450;2022-08-02T00:26:37;5.50;;;1.90;;
26052;SDS011;13826;51.186;4.450;2022-08-02T00:29:03;4.75;;;1.67;;
26052;SDS011;13826;51.186;4.450;2022-08-02T00:31:29;7.00;;;2.28;;
26052;SDS011;13826;51.186;4.450;2022-08-02T00:33:54;5.70;;;2.22;;
26052;SDS011;13826;51.186;4.450;2022-08-02T00:36:20;6.15;;;2.30;;
26052;SDS011;13826;51.186;4.450;2022-08-02T00:38:46;3.85;;;2.28;;
26052;SDS011;13826;51.186;4.450;2022-08-02T00:41:19;9.38;;;1.95;;
26052;SDS011;13826;51.186;4.450;2022-08-02T00:46:13;5.82;;;2.42;;
26052;SDS011;13826;51.186;4.450;2022-08-02T00:48:40;6.13;;;1.92;;
26052;SDS011;13826;51.186;4.450;2022-08-02T00:51:05;5.05;;;2.00;;
26052;SDS011;13826;51.186;4.450;2022-08-02T00:53:31;4.28;;;2.25;;
26052;SDS011;13826;51.186;4.450;2022-08-02T00:55:57;5.95;;;2.38;;
26052;SDS011;13826;51.186;4.450;2022-08-02T00:58:22;6.07;;;2.45;;
26052;SDS011;13826;51.186;4.450;2022-08-02T01:00:48;7.70;;;2.97;;
26052;SDS011;13826;51.186;4.450;2022-08-02T01:03:14;7.55;;;2.60;;
26052;SDS011;13826;51.186;4.450;2022-08-02T01:05:40;6.47;;;2.80;;
26052;SDS011;13826;51.186;4.450;2022-08-02T01:08:05;5.95;;;2.45;;
26052;SDS011;13826;51.186;4.450;2022-08-02T01:10:31;6.10;;;2.50;;
26052;SDS011;13826;51.186;4.450;2022-08-02T01:12:57;6.32;;;2.40;;
26052;SDS011;13826;51.186;4.450;2022-08-02T01:15:22;6.38;;;2.42;;
26052;SDS011;13826;51.186;4.450;2022-08-02T01:17:51;10.20;;;2.08;;
26052;SDS011;13826;51.186;4.450;2022-08-02T01:20:49;7.20;;;2.47;;
26052;SDS011;13826;51.186;4.450;2022-08-02T01:23:30;4.50;;;2.28;;
26052;SDS011;13826;51.186;4.450;2022-08-02T01:26:22;5.72;;;2.50;;
26052;SDS011;13826;51.186;4.450;2022-08-02T01:29:00;5.85;;;2.13;;
26052;SDS011;13826;51.186;4.450;2022-08-02T01:31:37;5.15;;;2.08;;
26052;SDS011;13826;51.186;4.450;2022-08-02T01:36:46;9.38;;;2.95;;
26052;SDS011;13826;51.186;4.450;2022-08-02T01:39:16;11.50;;;2.45;;
26052;SDS011;13826;51.186;4.450;2022-08-02T01:41:45;7.32;;;2.75;;
26052;SDS011;13826;51.186;4.450;2022-08-02T01:44:12;8.13;;;2.47;;
26052;SDS011;13826;51.186;4.450;2022-08-02T01:46:41;7.72;;;2.60;;
26052;SDS011;13826;51.186;4.450;2022-08-02T01:49:09;7.22;;;2.70;;
26052;SDS011;13826;51.186;4.450;2022-08-02T01:51:39;9.68;;;3.00;;
26052;SDS011;13826;51.186;4.450;2022-08-02T01:54:26;7.28;;;2.33;;
26052;SDS011;13826;51.186;4.450;2022-08-02T01:56:57;10.55;;;2.38;;
26052;SDS011;13826;51.186;4.450;2022-08-02T01:59:25;9.40;;;2.60;;
26052;SDS011;13826;51.186;4.450;2022-08-02T02:01:53;6.90;;;2.40;;
26052;SDS011;13826;51.186;4.450;2022-08-02T02:04:21;5.78;;;2.50;;
26052;SDS011;13826;51.186;4.450;2022-08-02T02:06:48;6.00;;;2.65;;
26052;SDS011;13826;51.186;4.450;2022-08-02T02:09:15;5.95;;;2.58;;
26052;SDS011;13826;51.186;4.450;2022-08-02T02:11:42;8.48;;;2.38;;
26052;SDS011;13826;51.186;4.450;2022-08-02T02:14:10;6.90;;;2.95;;
26052;SDS011;13826;51.186;4.450;2022-08-02T02:16:38;6.25;;;3.15;;
26052;SDS011;13826;51.186;4.450;2022-08-02T02:19:08;8.82;;;2.78;;
26052;SDS011;13826;51.186;4.450;2022-08-02T02:21:35;6.22;;;3.55;;
26052;SDS011;13826;51.186;4.450;2022-08-02T02:24:01;10.60;;;2.92;;
26052;SDS011;13826;51.186;4.450;2022-08-02T02:26:27;7.78;;;3.15;;
26052;SDS011;13826;51.186;4.450;2022-08-02T02:28:54;10.75;;;3.05;;
26052;SDS011;13826;51.186;4.450;2022-08-02T02:31:23;5.82;;;3.00;;
26052;SDS011;13826;51.186;4.450;2022-08-02T02:34:07;8.23;;;2.70;;
26052;SDS011;13826;51.186;4.450;2022-08-02T02:36:38;9.20;;;3.00;;
26052;SDS011;13826;51.186;4.450;2022-08-02T02:39:09;8.68;;;3.15;;
26052;SDS011;13826;51.186;4.450;2022-08-02T02:41:36;8.13;;;3.40;;
26052;SDS011;13826;51.186;4.450;2022-08-02T02:44:03;6.65;;;3.53;;
26052;SDS011;13826;51.186;4.450;2022-08-02T02:46:33;12.10;;;3.33;;
26052;SDS011;13826;51.186;4.450;2022-08-02T02:48:59;8.85;;;3.38;;
26052;SDS011;13826;51.186;4.450;2022-08-02T02:51:26;10.10;;;3.10;;
26052;SDS011;13826;51.186;4.450;2022-08-02T02:53:52;5.57;;;3.30;;
26052;SDS011;13826;51.186;4.450;2022-08-02T02:56:19;6.80;;;3.00;;
26052;SDS011;13826;51.186;4.450;2022-08-02T02:58:46;6.55;;;3.00;;
26052;SDS011;13826;51.186;4.450;2022-08-02T03:01:12;9.05;;;2.95;;
26052;SDS011;13826;51.186;4.450;2022-08-02T03:04:00;7.75;;;3.42;;
26052;SDS011;13826;51.186;4.450;2022-08-02T03:06:29;10.68;;;3.63;;
26052;SDS011;13826;51.186;4.450;2022-08-02T03:08:55;8.07;;;2.88;;
26052;SDS011;13826;51.186;4.450;2022-08-02T03:11:22;9.90;;;2.95;;
26052;SDS011;13826;51.186;4.450;2022-08-02T03:13:49;11.20;;;3.97;;
26052;SDS011;13826;51.186;4.450;2022-08-02T03:16:15;8.73;;;3.10;;
26052;SDS011;13826;51.186;4.450;2022-08-02T03:18:41;6.32;;;3.25;;
26052;SDS011;13826;51.186;4.450;2022-08-02T03:21:09;6.78;;;3.20;;
26052;SDS011;13826;51.186;4.450;2022-08-02T03:23:37;7.93;;;2.90;;
26052;SDS011;13826;51.186;4.450;2022-08-02T03:26:04;6.50;;;2.95;;
26052;SDS011;13826;51.186;4.450;2022-08-02T03:28:30;7.47;;;3.22;;
26052;SDS011;13826;51.186;4.450;2022-08-02T03:30:56;9.43;;;3.50;;
26052;SDS011;13826;51.186;4.450;2022-08-02T03:33:23;7.30;;;3.28;;
26052;SDS011;13826;51.186;4.450;2022-08-02T03:35:50;6.90;;;3.30;;
26052;SDS011;13826;51.186;4.450;2022-08-02T03:38:20;11.05;;;3.38;;
26052;SDS011;13826;51.186;4.450;2022-08-02T03:40:46;10.88;;;3.67;;
26052;SDS011;13826;51.186;4.450;2022-08-02T03:43:13;7.05;;;2.97;;
26052;SDS011;13826;51.186;4.450;2022-08-02T03:45:45;13.13;;;3.83;;
26052;SDS011;13826;51.186;4.450;2022-08-02T03:48:15;12.63;;;3.70;;
26052;SDS011;13826;51.186;4.450;2022-08-02T03:50:42;9.70;;;3.00;;
26052;SDS011;13826;51.186;4.450;2022-08-02T03:53:09;13.43;;;3.80;;
26052;SDS011;13826;51.186;4.450;2022-08-02T03:55:37;6.38;;;3.83;;
26052;SDS011;13826;51.186;4.450;2022-08-02T03:58:04;9.98;;;4.15;;
26052;SDS011;13826;51.186;4.450;2022-08-02T04:00:30;9.13;;;3.60;;
26052;SDS011;13826;51.186;4.450;2022-08-02T04:02:56;6.78;;;3.45;;
26052;SDS011;13826;51.186;4.450;2022-08-02T04:05:22;11.55;;;3.47;;
26052;SDS011;13826;51.186;4.450;2022-08-02T04:07:47;11.88;;;3.72;;
26052;SDS011;13826;51.186;4.450;2022-08-02T04:10:14;10.32;;;3.35;;
26052;SDS011;13826;51.186;4.450;2022-08-02T04:12:40;8.98;;;4.10;;
26052;SDS011;13826;51.186;4.450;2022-08-02T04:15:06;10.60;;;3.50;;
26052;SDS011;13826;51.186;4.450;2022-08-02T04:17:35;12.60;;;4.60;;
26052;SDS011;13826;51.186;4.450;2022-08-02T04:20:06;9.13;;;4.20;;
26052;SDS011;13826;51.186;4.450;2022-08-02T04:22:38;11.00;;;4.18;;
26052;SDS011;13826;51.186;4.450;2022-08-02T04:25:09;11.70;;;4.90;;
26052;SDS011;13826;51.186;4.450;2022-08-02T04:27:36;15.02;;;4.82;;
26052;SDS011;13826;51.186;4.450;2022-08-02T04:30:03;11.48;;;4.60;;
26052;SDS011;13826;51.186;4.450;2022-08-02T04:32:30;6.50;;;4.20;;
26052;SDS011;13826;51.186;4.450;2022-08-02T04:34:57;13.48;;;5.85;;
26052;SDS011;13826;51.186;4.450;2022-08-02T04:37:23;14.55;;;4.47;;
26052;SDS011;13826;51.186;4.450;2022-08-02T04:39:50;10.13;;;5.57;;
26052;SDS011;13826;51.186;4.450;2022-08-02T04:42:22;9.93;;;4.88;;
26052;SDS011;13826;51.186;4.450;2022-08-02T04:44:49;11.18;;;5.05;;
26052;SDS011;13826;51.186;4.450;2022-08-02T04:47:15;8.35;;;4.65;;
26052;SDS011;13826;51.186;4.450;2022-08-02T04:49:42;13.55;;;4.70;;
26052;SDS011;13826;51.186;4.450;2022-08-02T04:52:08;13.75;;;5.75;;
26052;SDS011;13826;51.186;4.450;2022-08-02T04:54:33;20.25;;;5.47;;
26052;SDS011;13826;51.186;4.450;2022-08-02T04:56:59;15.43;;;5.53;;
26052;SDS011;13826;51.186;4.450;2022-08-02T04:59:25;13.60;;;6.10;;
26052;SDS011;13826;51.186;4.450;2022-08-02T05:01:51;17.70;;;6.63;;
26052;SDS011;13826;51.186;4.450;2022-08-02T05:04:17;12.90;;;5.88;;
26052;SDS011;13826;51.186;4.450;2022-08-02T05:06:42;10.50;;;6.10;;
26052;SDS011;13826;51.186;4.450;2022-08-02T05:09:08;15.05;;;6.45;;
26052;SDS011;13826;51.186;4.450;2022-08-02T05:11:34;14.75;;;7.00;;
26052;SDS011;13826;51.186;4.450;2022-08-02T05:13:59;11.25;;;6.90;;
26052;SDS011;13826;51.186;4.450;2022-08-02T05:16:25;12.38;;;5.93;;
26052;SDS011;13826;51.186;4.450;2022-08-02T05:18:51;9.82;;;6.05;;
26052;SDS011;13826;51.186;4.450;2022-08-02T05:21:17;12.18;;;6.45;;
26052;SDS011;13826;51.186;4.450;2022-08-02T05:23:43;14.18;;;5.68;;
26052;SDS011;13826;51.186;4.450;2022-08-02T05:26:08;15.32;;;6.22;;
26052;SDS011;13826;51.186;4.450;2022-08-02T05:28:34;10.68;;;5.30;;
26052;SDS011;13826;51.186;4.450;2022-08-02T05:31:00;6.95;;;5.15;;
26052;SDS011;13826;51.186;4.450;2022-08-02T05:33:26;13.43;;;5.63;;
26052;SDS011;13826;51.186;4.450;2022-08-02T05:35:51;10.27;;;5.07;;
26052;SDS011;13826;51.186;4.450;2022-08-02T05:38:17;10.05;;;5.82;;
26052;SDS011;13826;51.186;4.450;2022-08-02T05:40:42;10.45;;;5.95;;
26052;SDS011;13826;51.186;4.450;2022-08-02T05:43:14;10.85;;;6.55;;
26052;SDS011;13826;51.186;4.450;2022-08-02T05:45:40;12.25;;;6.68;;
26052;SDS011;13826;51.186;4.450;2022-08-02T05:48:06;11.13;;;6.28;;
26052;SDS011;13826;51.186;4.450;2022-08-02T05:50:33;11.50;;;6.18;;
26052;SDS011;13826;51.186;4.450;2022-08-02T05:53:08;13.73;;;6.47;;
26052;SDS011;13826;51.186;4.450;2022-08-02T05:58:53;17.80;;;7.28;;
26052;SDS011;13826;51.186;4.450;2022-08-02T06:01:31;18.15;;;7.10;;
26052;SDS011;13826;51.186;4.450;2022-08-02T06:04:00;10.35;;;6.00;;
26052;SDS011;13826;51.186;4.450;2022-08-02T06:06:31;13.20;;;5.88;;
26052;SDS011;13826;51.186;4.450;2022-08-02T06:09:01;11.20;;;6.20;;
26052;SDS011;13826;51.186;4.450;2022-08-02T06:11:39;11.88;;;6.13;;
26052;SDS011;13826;51.186;4.450;2022-08-02T06:14:09;10.70;;;5.95;;
26052;SDS011;13826;51.186;4.450;2022-08-02T06:16:37;15.48;;;6.10;;
26052;SDS011;13826;51.186;4.450;2022-08-02T06:19:03;9.05;;;6.13;;
26052;SDS011;13826;51.186;4.450;2022-08-02T06:21:29;13.40;;;5.70;;
26052;SDS011;13826;51.186;4.450;2022-08-02T06:23:56;10.02;;;5.15;;
26052;SDS011;13826;51.186;4.450;2022-08-02T06:26:23;9.77;;;5.22;;
26052;SDS011;13826;51.186;4.450;2022-08-02T06:28:50;8.27;;;5.78;;
26052;SDS011;13826;51.186;4.450;2022-08-02T06:31:18;8.93;;;5.50;;
26052;SDS011;13826;51.186;4.450;2022-08-02T06:33:44;9.15;;;5.25;;
26052;SDS011;13826;51.186;4.450;2022-08-02T06:39:20;11.90;;;6.25;;
26052;SDS011;13826;51.186;4.450;2022-08-02T06:41:56;10.20;;;5.18;;
26052;SDS011;13826;51.186;4.450;2022-08-02T06:44:24;13.10;;;6.13;;
26052;SDS011;13826;51.186;4.450;2022-08-02T06:46:50;9.10;;;5.25;;
26052;SDS011;13826;51.186;4.450;2022-08-02T06:49:16;6.88;;;4.53;;
26052;SDS011;13826;51.186;4.450;2022-08-02T06:51:41;7.70;;;4.60;;
26052;SDS011;13826;51.186;4.450;2022-08-02T06:54:08;6.40;;;3.78;;
26052;SDS011;13826;51.186;4.450;2022-08-02T06:56:37;6.32;;;3.60;;
26052;SDS011;13826;51.186;4.450;2022-08-02T06:59:05;5.55;;;3.60;;
26052;SDS011;13826;51.186;4.450;2022-08-02T07:01:31;6.13;;;3.28;;
26052;SDS011;13826;51.186;4.450;2022-08-02T07:03:57;3.78;;;2.97;;
26052;SDS011;13826;51.186;4.450;2022-08-02T07:06:23;5.25;;;2.78;;
26052;SDS011;13826;51.186;4.450;2022-08-02T07:08:49;8.15;;;3.05;;
26052;SDS011;13826;51.186;4.450;2022-08-02T07:11:14;12.32;;;3.35;;
26052;SDS011;13826;51.186;4.450;2022-08-02T07:13:40;8.07;;;3.70;;
26052;SDS011;13826;51.186;4.450;2022-08-02T07:16:06;9.52;;;3.08;;
26052;SDS011;13826;51.186;4.450;2022-08-02T07:18:32;6.40;;;3.17;;
26052;SDS011;13826;51.186;4.450;2022-08-02T07:20:59;8.02;;;3.13;;
26052;SDS011;13826;51.186;4.450;2022-08-02T07:23:24;6.38;;;2.80;;
26052;SDS011;13826;51.186;4.450;2022-08-02T07:25:50;7.43;;;2.33;;
26052;SDS011;13826;51.186;4.450;2022-08-02T07:28:16;7.43;;;2.80;;
26052;SDS011;13826;51.186;4.450;2022-08-02T07:30:41;6.00;;;2.63;;
26052;SDS011;13826;51.186;4.450;2022-08-02T07:33:07;9.18;;;2.58;;
26052;SDS011;13826;51.186;4.450;2022-08-02T07:35:34;5.00;;;2.22;;
26052;SDS011;13826;51.186;4.450;2022-08-02T07:37:59;6.18;;;2.60;;
26052;SDS011;13826;51.186;4.450;2022-08-02T07:40:25;5.88;;;2.85;;
26052;SDS011;13826;51.186;4.450;2022-08-02T07:42:52;6.43;;;2.70;;
26052;SDS011;13826;51.186;4.450;2022-08-02T07:45:20;3.53;;;2.35;;
26052;SDS011;13826;51.186;4.450;2022-08-02T07:47:46;8.90;;;2.30;;
26052;SDS011;13826;51.186;4.450;2022-08-02T07:50:14;7.22;;;3.33;;
26052;SDS011;13826;51.186;4.450;2022-08-02T07:52:41;10.07;;;3.00;;
26052;SDS011;13826;51.186;4.450;2022-08-02T07:55:08;4.80;;;2.15;;
26052;SDS011;13826;51.186;4.450;2022-08-02T07:57:35;6.07;;;1.77;;
26052;SDS011;13826;51.186;4.450;2022-08-02T08:00:02;4.45;;;1.60;;
26052;SDS011;13826;51.186;4.450;2022-08-02T08:02:30;3.65;;;1.73;;
26052;SDS011;13826;51.186;4.450;2022-08-02T08:04:56;4.65;;;1.95;;
26052;SDS011;13826;51.186;4.450;2022-08-02T08:07:22;4.50;;;1.45;;
26052;SDS011;13826;51.186;4.450;2022-08-02T08:09:48;5.32;;;1.45;;
26052;SDS011;13826;51.186;4.450;2022-08-02T08:12:14;4.82;;;1.33;;
26052;SDS011;13826;51.186;4.450;2022-08-02T08:14:40;2.22;;;1.70;;
26052;SDS011;13826;51.186;4.450;2022-08-02T08:17:06;3.35;;;1.73;;
26052;SDS011;13826;51.186;4.450;2022-08-02T08:19:32;3.20;;;1.90;;
26052;SDS011;13826;51.186;4.450;2022-08-02T08:21:59;3.72;;;1.90;;
26052;SDS011;13826;51.186;4.450;2022-08-02T08:24:27;10.45;;;2.10;;
26052;SDS011;13826;51.186;4.450;2022-08-02T08:26:53;7.57;;;1.75;;
26052;SDS011;13826;51.186;4.450;2022-08-02T08:29:19;7.63;;;2.20;;
26052;SDS011;13826;51.186;4.450;2022-08-02T08:31:45;6.15;;;1.65;;
26052;SDS011;13826;51.186;4.450;2022-08-02T08:34:11;3.50;;;1.50;;
26052;SDS011;13826;51.186;4.450;2022-08-02T08:36:38;4.68;;;2.00;;
26052;SDS011;13826;51.186;4.450;2022-08-02T08:39:04;4.13;;;2.25;;
26052;SDS011;13826;51.186;4.450;2022-08-02T08:41:30;4.55;;;1.67;;
26052;SDS011;13826;51.186;4.450;2022-08-02T08:43:55;3.80;;;1.85;;
26052;SDS011;13826;51.186;4.450;2022-08-02T08:46:25;2.85;;;1.80;;
26052;SDS011;13826;51.186;4.450;2022-08-02T08:49:15;6.97;;;2.10;;
26052;SDS011;13826;51.186;4.450;2022-08-02T08:51:47;5.88;;;2.20;;
26052;SDS011;13826;51.186;4.450;2022-08-02T08:54:15;4.10;;;1.70;;
26052;SDS011;13826;51.186;4.450;2022-08-02T08:56:42;3.35;;;1.35;;
26052;SDS011;13826;51.186;4.450;2022-08-02T08:59:09;3.75;;;1.40;;
26052;SDS011;13826;51.186;4.450;2022-08-02T09:01:35;7.82;;;2.35;;
26052;SDS011;13826;51.186;4.450;2022-08-02T09:04:01;4.72;;;1.70;;
26052;SDS011;13826;51.186;4.450;2022-08-02T09:06:27;5.10;;;2.10;;
26052;SDS011;13826;51.186;4.450;2022-08-02T09:08:53;2.80;;;1.60;;
26052;SDS011;13826;51.186;4.450;2022-08-02T09:11:22;5.35;;;1.88;;
26052;SDS011;13826;51.186;4.450;2022-08-02T09:19:19;2.47;;;1.42;;
26052;SDS011;13826;51.186;4.450;2022-08-02T09:22:00;4.05;;;1.98;;
26052;SDS011;13826;51.186;4.450;2022-08-02T09:24:42;6.20;;;2.42;;
26052;SDS011;13826;51.186;4.450;2022-08-02T09:27:11;4.75;;;1.70;;
26052;SDS011;13826;51.186;4.450;2022-08-02T09:29:38;2.95;;;1.60;;
26052;SDS011;13826;51.186;4.450;2022-08-02T09:32:04;6.28;;;1.77;;
26052;SDS011;13826;51.186;4.450;2022-08-02T09:34:49;13.95;;;2.80;;
26052;SDS011;13826;51.186;4.450;2022-08-02T09:39:52;5.40;;;1.77;;
26052;SDS011;13826;51.186;4.450;2022-08-02T09:42:18;4.20;;;1.35;;
26052;SDS011;13826;51.186;4.450;2022-08-02T09:47:19;5.13;;;1.23;;
26052;SDS011;13826;51.186;4.450;2022-08-02T09:49:46;3.90;;;1.60;;
26052;SDS011;13826;51.186;4.450;2022-08-02T09:52:12;4.28;;;1.52;;
26052;SDS011;13826;51.186;4.450;2022-08-02T09:54:38;3.65;;;1.17;;
26052;SDS011;13826;51.186;4.450;2022-08-02T09:57:05;3.15;;;1.52;;
26052;SDS011;13826;51.186;4.450;2022-08-02T09:59:31;10.13;;;1.83;;
26052;SDS011;13826;51.186;4.450;2022-08-02T10:01:58;7.15;;;1.45;;
26052;SDS011;13826;51.186;4.450;2022-08-02T10:04:27;5.03;;;1.30;;
26052;SDS011;13826;51.186;4.450;2022-08-02T10:06:54;5.85;;;1.60;;
26052;SDS011;13826;51.186;4.450;2022-08-02T10:09:20;3.08;;;1.48;;
26052;SDS011;13826;51.186;4.450;2022-08-02T10:11:47;6.55;;;1.60;;
26052;SDS011;13826;51.186;4.450;2022-08-02T10:14:13;4.50;;;1.50;;
26052;SDS011;13826;51.186;4.450;2022-08-02T10:16:42;4.75;;;1.48;;
26052;SDS011;13826;51.186;4.450;2022-08-02T10:19:08;3.15;;;1.60;;
26052;SDS011;13826;51.186;4.450;2022-08-02T10:21:44;6.80;;;1.60;;
26052;SDS011;13826;51.186;4.450;2022-08-02T10:24:16;7.10;;;1.60;;
26052;SDS011;13826;51.186;4.450;2022-08-02T10:26:45;8.40;;;1.75;;
26052;SDS011;13826;51.186;4.450;2022-08-02T10:29:19;3.42;;;1.40;;
26052;SDS011;13826;51.186;4.450;2022-08-02T10:31:55;10.75;;;2.13;;
26052;SDS011;13826;51.186;4.450;2022-08-02T10:34:32;5.72;;;1.83;;
26052;SDS011;13826;51.186;4.450;2022-08-02T10:37:02;8.00;;;2.13;;
26052;SDS011;13826;51.186;4.450;2022-08-02T10:39:38;2.85;;;1.20;;
26052;SDS011;13826;51.186;4.450;2022-08-02T10:42:08;3.15;;;1.45;;
26052;SDS011;13826;51.186;4.450;2022-08-02T10:44:34;4.80;;;1.63;;
26052;SDS011;13826;51.186;4.450;2022-08-02T10:52:26;5.85;;;1.83;;
26052;SDS011;13826;51.186;4.450;2022-08-02T10:55:00;8.95;;;2.08;;
26052;SDS011;13826;51.186;4.450;2022-08-02T10:59:54;4.28;;;2.10;;
26052;SDS011;13826;51.186;4.450;2022-08-02T11:02:41;5.25;;;2.33;;
26052;SDS011;13826;51.186;4.450;2022-08-02T11:05:09;4.88;;;1.75;;
26052;SDS011;13826;51.186;4.450;2022-08-02T11:07:42;2.40;;;1.20;;
26052;SDS011;13826;51.186;4.450;2022-08-02T11:18:21;5.93;;;1.20;;
26052;SDS011;13826;51.186;4.450;2022-08-02T11:21:20;2.58;;;1.17;;
26052;SDS011;13826;51.186;4.450;2022-08-02T11:23:47;4.30;;;1.38;;
26052;SDS011;13826;51.186;4.450;2022-08-02T11:31:23;6.57;;;2.00;;
26052;SDS011;13826;51.186;4.450;2022-08-02T11:33:49;4.50;;;2.15;;
26052;SDS011;13826;51.186;4.450;2022-08-02T11:36:16;6.15;;;1.75;;
26052;SDS011;13826;51.186;4.450;2022-08-02T11:38:42;4.22;;;1.13;;
26052;SDS011;13826;51.186;4.450;2022-08-02T11:41:09;2.42;;;1.27;;
26052;SDS011;13826;51.186;4.450;2022-08-02T11:43:43;7.60;;;2.17;;
26052;SDS011;13826;51.186;4.450;2022-08-02T11:46:13;3.38;;;1.40;;
26052;SDS011;13826;51.186;4.450;2022-08-02T11:48:40;3.33;;;1.70;;
26052;SDS011;13826;51.186;4.450;2022-08-02T11:51:08;3.47;;;1.20;;
26052;SDS011;13826;51.186;4.450;2022-08-02T11:53:51;5.20;;;1.17;;
26052;SDS011;13826;51.186;4.450;2022-08-02T11:56:24;2.30;;;1.27;;
26052;SDS011;13826;51.186;4.450;2022-08-02T12:01:29;5.63;;;1.25;;
26052;SDS011;13826;51.186;4.450;2022-08-02T12:03:56;1.88;;;1.27;;
26052;SDS011;13826;51.186;4.450;2022-08-02T12:06:27;2.60;;;1.00;;
26052;SDS011;13826;51.186;4.450;2022-08-02T12:11:29;12.88;;;1.67;;
26052;SDS011;13826;51.186;4.450;2022-08-02T12:13:56;6.03;;;1.20;;
26052;SDS011;13826;51.186;4.450;2022-08-02T12:16:22;2.33;;;1.10;;
26052;SDS011;13826;51.186;4.450;2022-08-02T12:19:06;5.32;;;1.60;;
26052;SDS011;13826;51.186;4.450;2022-08-02T12:21:45;1.88;;;1.17;;
26052;SDS011;13826;51.186;4.450;2022-08-02T12:24:11;4.53;;;1.27;;
26052;SDS011;13826;51.186;4.450;2022-08-02T12:26:41;2.20;;;1.25;;
26052;SDS011;13826;51.186;4.450;2022-08-02T12:29:11;3.10;;;1.63;;
26052;SDS011;13826;51.186;4.450;2022-08-02T12:31:38;1.98;;;0.80;;
26052;SDS011;13826;51.186;4.450;2022-08-02T12:34:12;3.67;;;0.90;;
26052;SDS011;13826;51.186;4.450;2022-08-02T12:36:41;7.78;;;1.90;;
26052;SDS011;13826;51.186;4.450;2022-08-02T12:39:12;4.90;;;1.77;;
26052;SDS011;13826;51.186;4.450;2022-08-02T12:41:38;4.43;;;1.58;;
26052;SDS011;13826;51.186;4.450;2022-08-02T12:44:13;4.28;;;1.83;;
26052;SDS011;13826;51.186;4.450;2022-08-02T12:46:39;3.63;;;1.40;;
26052;SDS011;13826;51.186;4.450;2022-08-02T12:49:26;5.72;;;1.17;;
26052;SDS011;13826;51.186;4.450;2022-08-02T12:51:51;5.13;;;1.05;;
26052;SDS011;13826;51.186;4.450;2022-08-02T12:54:18;3.40;;;1.25;;
26052;SDS011;13826;51.186;4.450;2022-08-02T12:56:46;6.65;;;1.17;;
26052;SDS011;13826;51.186;4.450;2022-08-02T12:59:13;2.30;;;1.17;;
26052;SDS011;13826;51.186;4.450;2022-08-02T13:01:40;4.97;;;1.17;;
26052;SDS011;13826;51.186;4.450;2022-08-02T13:04:05;6.95;;;1.10;;
26052;SDS011;13826;51.186;4.450;2022-08-02T13:06:32;6.28;;;1.00;;
26052;SDS011;13826;51.186;4.450;2022-08-02T13:08:58;8.68;;;1.30;;
26052;SDS011;13826;51.186;4.450;2022-08-02T13:11:24;3.15;;;0.90;;
26052;SDS011;13826;51.186;4.450;2022-08-02T13:13:50;2.65;;;1.25;;
26052;SDS011;13826;51.186;4.450;2022-08-02T13:16:16;2.30;;;1.27;;
26052;SDS011;13826;51.186;4.450;2022-08-02T13:18:42;2.67;;;1.35;;
26052;SDS011;13826;51.186;4.450;2022-08-02T13:21:09;5.93;;;1.15;;
26052;SDS011;13826;51.186;4.450;2022-08-02T13:23:35;4.35;;;1.55;;
26052;SDS011;13826;51.186;4.450;2022-08-02T13:26:01;5.38;;;1.40;;
26052;SDS011;13826;51.186;4.450;2022-08-02T13:28:28;3.97;;;1.30;;
26052;SDS011;13826;51.186;4.450;2022-08-02T13:30:53;6.30;;;1.55;;
26052;SDS011;13826;51.186;4.450;2022-08-02T13:33:19;5.60;;;1.45;;
26052;SDS011;13826;51.186;4.450;2022-08-02T13:35:45;7.78;;;1.60;;
26052;SDS011;13826;51.186;4.450;2022-08-02T13:38:12;3.03;;;1.52;;
26052;SDS011;13826;51.186;4.450;2022-08-02T13:40:38;5.82;;;1.48;;
26052;SDS011;13826;51.186;4.450;2022-08-02T13:43:24;8.95;;;1.33;;
26052;SDS011;13826;51.186;4.450;2022-08-02T13:45:50;4.70;;;1.98;;
26052;SDS011;13826;51.186;4.450;2022-08-02T13:48:16;5.57;;;2.00;;
26052;SDS011;13826;51.186;4.450;2022-08-02T13:50:42;5.90;;;1.42;;
26052;SDS011;13826;51.186;4.450;2022-08-02T13:53:07;7.60;;;1.45;;
26052;SDS011;13826;51.186;4.450;2022-08-02T13:55:36;4.32;;;1.08;;
26052;SDS011;13826;51.186;4.450;2022-08-02T13:58:02;3.53;;;1.30;;
26052;SDS011;13826;51.186;4.450;2022-08-02T14:00:29;5.88;;;1.23;;
26052;SDS011;13826;51.186;4.450;2022-08-02T14:02:55;8.45;;;1.52;;
26052;SDS011;13826;51.186;4.450;2022-08-02T14:05:20;5.20;;;1.33;;
26052;SDS011;13826;51.186;4.450;2022-08-02T14:07:46;8.57;;;1.75;;
26052;SDS011;13826;51.186;4.450;2022-08-02T14:10:12;8.20;;;1.48;;
26052;SDS011;13826;51.186;4.450;2022-08-02T14:12:37;5.18;;;1.23;;
26052;SDS011;13826;51.186;4.450;2022-08-02T14:15:03;4.28;;;1.17;;
26052;SDS011;13826;51.186;4.450;2022-08-02T14:17:29;7.75;;;2.00;;
26052;SDS011;13826;51.186;4.450;2022-08-02T14:19:55;3.10;;;1.33;;
26052;SDS011;13826;51.186;4.450;2022-08-02T14:22:21;8.85;;;1.27;;
26052;SDS011;13826;51.186;4.450;2022-08-02T14:24:46;5.95;;;1.33;;
26052;SDS011;13826;51.186;4.450;2022-08-02T14:27:12;12.00;;;1.83;;
26052;SDS011;13826;51.186;4.450;2022-08-02T14:29:39;5.70;;;2.13;;
26052;SDS011;13826;51.186;4.450;2022-08-02T14:32:05;11.07;;;1.67;;
26052;SDS011;13826;51.186;4.450;2022-08-02T14:34:31;11.57;;;1.98;;
26052;SDS011;13826;51.186;4.450;2022-08-02T14:36:57;10.20;;;1.90;;
26052;SDS011;13826;51.186;4.450;2022-08-02T14:39:22;4.10;;;1.55;;
26052;SDS011;13826;51.186;4.450;2022-08-02T14:41:48;6.45;;;1.60;;
26052;SDS011;13826;51.186;4.450;2022-08-02T14:44:14;4.78;;;1.38;;
26052;SDS011;13826;51.186;4.450;2022-08-02T14:46:39;5.00;;;1.42;;
26052;SDS011;13826;51.186;4.450;2022-08-02T14:49:06;3.45;;;1.30;;
26052;SDS011;13826;51.186;4.450;2022-08-02T14:51:35;4.90;;;1.20;;
26052;SDS011;13826;51.186;4.450;2022-08-02T14:54:05;6.88;;;1.38;;
26052;SDS011;13826;51.186;4.450;2022-08-02T14:56:32;4.07;;;1.40;;
26052;SDS011;13826;51.186;4.450;2022-08-02T14:58:58;5.85;;;1.20;;
26052;SDS011;13826;51.186;4.450;2022-08-02T15:01:23;6.70;;;1.75;;
26052;SDS011;13826;51.186;4.450;2022-08-02T15:03:50;6.32;;;1.50;;
26052;SDS011;13826;51.186;4.450;2022-08-02T15:06:16;9.00;;;1.67;;
26052;SDS011;13826;51.186;4.450;2022-08-02T15:08:42;5.95;;;2.63;;
26052;SDS011;13826;51.186;4.450;2022-08-02T15:11:08;8.32;;;2.30;;
26052;SDS011;13826;51.186;4.450;2022-08-02T15:13:34;7.70;;;1.95;;
26052;SDS011;13826;51.186;4.450;2022-08-02T15:16:00;6.30;;;2.10;;
26052;SDS011;13826;51.186;4.450;2022-08-02T15:18:26;7.00;;;2.00;;
26052;SDS011;13826;51.186;4.450;2022-08-02T15:20:52;9.05;;;2.28;;
26052;SDS011;13826;51.186;4.450;2022-08-02T15:23:18;5.72;;;2.10;;
26052;SDS011;13826;51.186;4.450;2022-08-02T15:25:44;11.07;;;1.92;;
26052;SDS011;13826;51.186;4.450;2022-08-02T15:28:10;7.72;;;2.30;;
26052;SDS011;13826;51.186;4.450;2022-08-02T15:30:35;6.78;;;1.77;;
26052;SDS011;13826;51.186;4.450;2022-08-02T15:33:02;4.75;;;1.90;;
26052;SDS011;13826;51.186;4.450;2022-08-02T15:35:29;8.10;;;3.28;;
26052;SDS011;13826;51.186;4.450;2022-08-02T15:37:55;10.57;;;2.70;;
26052;SDS011;13826;51.186;4.450;2022-08-02T15:40:21;6.00;;;2.22;;